sensor_id;sensor_type;location;lat;lon;timestamp;P1;durP1;ratioP1;P2;durP2;ratioP2
29728;SDS011;20055;51.498;11.960;2022-11-27T00:00:30;50.15;;;17.50;;
29728;SDS011;20055;51.498;11.960;2022-11-27T00:02:57;46.50;;;18.55;;
29728;SDS011;20055;51.498;11.960;2022-11-27T00:05:24;47.13;;;17.00;;
29728;SDS011;20055;51.498;11.960;2022-11-27T00:07:50;41.28;;;18.02;;
29728;SDS011;20055;51.498;11.960;2022-11-27T00:10:16;50.33;;;18.10;;
29728;SDS011;20055;51.498;11.960;2022-11-27T00:12:43;42.03;;;19.17;;
29728;SDS011;20055;51.498;11.960;2022-11-27T00:15:10;50.50;;;17.95;;
29728;SDS011;20055;51.498;11.960;2022-11-27T00:17:36;55.35;;;20.58;;
29728;SDS011;20055;51.498;11.960;2022-11-27T00:20:03;40.10;;;17.23;;
29728;SDS011;20055;51.498;11.960;2022-11-27T00:22:30;43.90;;;19.73;;
29728;SDS011;20055;51.498;11.960;2022-11-27T00:24:57;41.80;;;17.42;;
29728;SDS011;20055;51.498;11.960;2022-11-27T00:27:23;42.85;;;18.13;;
29728;SDS011;20055;51.498;11.960;2022-11-27T00:29:50;49.33;;;17.35;;
29728;SDS011;20055;51.498;11.960;2022-11-27T00:32:17;44.92;;;18.60;;
29728;SDS011;20055;51.498;11.960;2022-11-27T00:34:43;39.85;;;17.60;;
29728;SDS011;20055;51.498;11.960;2022-11-27T00:37:10;44.45;;;17.67;;
29728;SDS011;20055;51.498;11.960;2022-11-27T00:39:39;58.10;;;18.25;;
29728;SDS011;20055;51.498;11.960;2022-11-27T00:42:05;45.05;;;19.10;;
29728;SDS011;20055;51.498;11.960;2022-11-27T00:44:32;50.55;;;18.33;;
29728;SDS011;20055;51.498;11.960;2022-11-27T00:46:59;48.05;;;17.20;;
29728;SDS011;20055;51.498;11.960;2022-11-27T00:49:25;49.10;;;18.65;;
29728;SDS011;20055;51.498;11.960;2022-11-27T00:51:52;55.75;;;20.13;;
29728;SDS011;20055;51.498;11.960;2022-11-27T00:54:19;58.08;;;20.58;;
29728;SDS011;20055;51.498;11.960;2022-11-27T00:56:45;59.03;;;21.50;;
29728;SDS011;20055;51.498;11.960;2022-11-27T00:59:12;59.00;;;20.30;;
29728;SDS011;20055;51.498;11.960;2022-11-27T01:01:39;63.92;;;20.95;;
29728;SDS011;20055;51.498;11.960;2022-11-27T01:04:07;73.10;;;22.30;;
29728;SDS011;20055;51.498;11.960;2022-11-27T01:06:35;62.28;;;22.27;;
29728;SDS011;20055;51.498;11.960;2022-11-27T01:09:02;57.30;;;22.80;;
29728;SDS011;20055;51.498;11.960;2022-11-27T01:11:29;47.85;;;18.38;;
29728;SDS011;20055;51.498;11.960;2022-11-27T01:14:00;52.65;;;21.50;;
29728;SDS011;20055;51.498;11.960;2022-11-27T01:16:28;57.70;;;22.67;;
29728;SDS011;20055;51.498;11.960;2022-11-27T01:18:56;52.60;;;20.77;;
29728;SDS011;20055;51.498;11.960;2022-11-27T01:21:23;59.90;;;21.70;;
29728;SDS011;20055;51.498;11.960;2022-11-27T01:23:50;65.68;;;24.98;;
29728;SDS011;20055;51.498;11.960;2022-11-27T01:26:19;54.67;;;22.73;;
29728;SDS011;20055;51.498;11.960;2022-11-27T01:28:45;63.95;;;24.25;;
29728;SDS011;20055;51.498;11.960;2022-11-27T01:31:15;58.78;;;23.27;;
29728;SDS011;20055;51.498;11.960;2022-11-27T01:33:42;61.63;;;23.27;;
29728;SDS011;20055;51.498;11.960;2022-11-27T01:36:09;56.72;;;22.02;;
29728;SDS011;20055;51.498;11.960;2022-11-27T01:38:36;56.28;;;23.23;;
29728;SDS011;20055;51.498;11.960;2022-11-27T01:41:07;56.33;;;24.83;;
29728;SDS011;20055;51.498;11.960;2022-11-27T01:43:45;54.90;;;23.38;;
29728;SDS011;20055;51.498;11.960;2022-11-27T01:46:15;49.92;;;23.40;;
29728;SDS011;20055;51.498;11.960;2022-11-27T01:48:43;53.05;;;21.58;;
29728;SDS011;20055;51.498;11.960;2022-11-27T01:51:11;53.10;;;25.05;;
29728;SDS011;20055;51.498;11.960;2022-11-27T01:53:37;56.47;;;24.08;;
29728;SDS011;20055;51.498;11.960;2022-11-27T01:56:04;71.78;;;24.60;;
29728;SDS011;20055;51.498;11.960;2022-11-27T01:58:31;59.30;;;24.52;;
29728;SDS011;20055;51.498;11.960;2022-11-27T02:00:58;57.20;;;25.70;;
29728;SDS011;20055;51.498;11.960;2022-11-27T02:03:25;55.30;;;24.15;;
29728;SDS011;20055;51.498;11.960;2022-11-27T02:05:51;60.35;;;26.20;;
29728;SDS011;20055;51.498;11.960;2022-11-27T02:08:18;75.53;;;27.52;;
29728;SDS011;20055;51.498;11.960;2022-11-27T02:16:13;65.05;;;27.20;;
29728;SDS011;20055;51.498;11.960;2022-11-27T02:21:21;57.75;;;24.58;;
29728;SDS011;20055;51.498;11.960;2022-11-27T02:29:12;43.25;;;20.70;;
29728;SDS011;20055;51.498;11.960;2022-11-27T02:31:48;47.85;;;21.25;;
29728;SDS011;20055;51.498;11.960;2022-11-27T02:36:48;52.78;;;21.52;;
29728;SDS011;20055;51.498;11.960;2022-11-27T02:39:17;46.92;;;21.83;;
29728;SDS011;20055;51.498;11.960;2022-11-27T02:44:12;58.90;;;20.92;;
29728;SDS011;20055;51.498;11.960;2022-11-27T02:46:39;42.55;;;21.02;;
29728;SDS011;20055;51.498;11.960;2022-11-27T02:49:10;60.28;;;21.42;;
29728;SDS011;20055;51.498;11.960;2022-11-27T02:51:43;46.30;;;19.55;;
29728;SDS011;20055;51.498;11.960;2022-11-27T02:54:12;41.70;;;19.23;;
29728;SDS011;20055;51.498;11.960;2022-11-27T02:56:39;38.03;;;15.60;;
29728;SDS011;20055;51.498;11.960;2022-11-27T02:59:08;47.88;;;18.20;;
29728;SDS011;20055;51.498;11.960;2022-11-27T03:01:38;47.33;;;19.73;;
29728;SDS011;20055;51.498;11.960;2022-11-27T03:04:08;49.45;;;22.05;;
29728;SDS011;20055;51.498;11.960;2022-11-27T03:06:43;41.70;;;18.38;;
29728;SDS011;20055;51.498;11.960;2022-11-27T03:09:17;48.45;;;18.15;;
29728;SDS011;20055;51.498;11.960;2022-11-27T03:11:45;32.78;;;16.58;;
29728;SDS011;20055;51.498;11.960;2022-11-27T03:14:12;46.75;;;17.08;;
29728;SDS011;20055;51.498;11.960;2022-11-27T03:16:49;46.42;;;18.42;;
29728;SDS011;20055;51.498;11.960;2022-11-27T03:21:56;41.72;;;17.30;;
29728;SDS011;20055;51.498;11.960;2022-11-27T03:24:23;37.75;;;16.80;;
29728;SDS011;20055;51.498;11.960;2022-11-27T03:26:50;44.70;;;18.67;;
29728;SDS011;20055;51.498;11.960;2022-11-27T03:29:19;39.92;;;16.40;;
29728;SDS011;20055;51.498;11.960;2022-11-27T03:31:46;41.40;;;16.27;;
29728;SDS011;20055;51.498;11.960;2022-11-27T03:34:13;42.88;;;18.05;;
29728;SDS011;20055;51.498;11.960;2022-11-27T03:36:40;37.55;;;17.45;;
29728;SDS011;20055;51.498;11.960;2022-11-27T03:39:07;44.30;;;17.42;;
29728;SDS011;20055;51.498;11.960;2022-11-27T03:44:41;50.58;;;17.25;;
29728;SDS011;20055;51.498;11.960;2022-11-27T03:47:24;43.05;;;16.58;;
29728;SDS011;20055;51.498;11.960;2022-11-27T03:57:37;43.33;;;15.43;;
29728;SDS011;20055;51.498;11.960;2022-11-27T04:00:07;37.20;;;15.48;;
29728;SDS011;20055;51.498;11.960;2022-11-27T04:02:42;37.88;;;16.95;;
29728;SDS011;20055;51.498;11.960;2022-11-27T04:05:09;39.55;;;15.43;;
29728;SDS011;20055;51.498;11.960;2022-11-27T04:07:36;36.13;;;14.85;;
29728;SDS011;20055;51.498;11.960;2022-11-27T04:10:02;41.63;;;16.30;;
29728;SDS011;20055;51.498;11.960;2022-11-27T04:12:29;34.42;;;14.88;;
29728;SDS011;20055;51.498;11.960;2022-11-27T04:14:55;33.90;;;15.05;;
29728;SDS011;20055;51.498;11.960;2022-11-27T04:17:22;37.05;;;15.52;;
29728;SDS011;20055;51.498;11.960;2022-11-27T04:19:49;30.92;;;15.27;;
29728;SDS011;20055;51.498;11.960;2022-11-27T04:22:15;37.25;;;15.90;;
29728;SDS011;20055;51.498;11.960;2022-11-27T04:24:42;35.92;;;15.98;;
29728;SDS011;20055;51.498;11.960;2022-11-27T04:27:08;35.03;;;15.27;;
29728;SDS011;20055;51.498;11.960;2022-11-27T04:29:35;36.88;;;15.98;;
29728;SDS011;20055;51.498;11.960;2022-11-27T04:32:02;38.65;;;15.60;;
29728;SDS011;20055;51.498;11.960;2022-11-27T04:34:29;41.28;;;16.20;;
29728;SDS011;20055;51.498;11.960;2022-11-27T04:36:56;34.55;;;15.60;;
29728;SDS011;20055;51.498;11.960;2022-11-27T04:39:23;39.10;;;16.40;;
29728;SDS011;20055;51.498;11.960;2022-11-27T04:41:49;42.20;;;16.80;;
29728;SDS011;20055;51.498;11.960;2022-11-27T04:44:16;35.75;;;15.68;;
29728;SDS011;20055;51.498;11.960;2022-11-27T04:46:43;39.67;;;17.65;;
29728;SDS011;20055;51.498;11.960;2022-11-27T04:49:09;41.85;;;18.63;;
29728;SDS011;20055;51.498;11.960;2022-11-27T04:51:36;40.05;;;18.40;;
29728;SDS011;20055;51.498;11.960;2022-11-27T04:54:03;36.67;;;17.20;;
29728;SDS011;20055;51.498;11.960;2022-11-27T04:56:29;40.00;;;18.17;;
29728;SDS011;20055;51.498;11.960;2022-11-27T04:58:56;45.60;;;18.15;;
29728;SDS011;20055;51.498;11.960;2022-11-27T05:01:22;41.78;;;18.92;;
29728;SDS011;20055;51.498;11.960;2022-11-27T05:03:49;35.20;;;18.88;;
29728;SDS011;20055;51.498;11.960;2022-11-27T05:06:15;44.00;;;20.00;;
29728;SDS011;20055;51.498;11.960;2022-11-27T05:08:42;47.85;;;20.13;;
29728;SDS011;20055;51.498;11.960;2022-11-27T05:11:12;43.67;;;20.20;;
29728;SDS011;20055;51.498;11.960;2022-11-27T05:13:39;40.60;;;20.00;;
29728;SDS011;20055;51.498;11.960;2022-11-27T05:16:06;40.35;;;19.13;;
29728;SDS011;20055;51.498;11.960;2022-11-27T05:18:32;41.45;;;19.92;;
29728;SDS011;20055;51.498;11.960;2022-11-27T05:21:00;42.33;;;20.63;;
29728;SDS011;20055;51.498;11.960;2022-11-27T05:23:27;43.58;;;20.30;;
29728;SDS011;20055;51.498;11.960;2022-11-27T05:25:54;44.53;;;19.67;;
29728;SDS011;20055;51.498;11.960;2022-11-27T05:28:21;55.95;;;22.58;;
29728;SDS011;20055;51.498;11.960;2022-11-27T05:30:48;50.55;;;23.00;;
29728;SDS011;20055;51.498;11.960;2022-11-27T05:33:15;46.35;;;23.25;;
29728;SDS011;20055;51.498;11.960;2022-11-27T05:35:42;58.35;;;22.42;;
29728;SDS011;20055;51.498;11.960;2022-11-27T05:38:10;54.08;;;22.83;;
29728;SDS011;20055;51.498;11.960;2022-11-27T05:40:37;50.13;;;21.98;;
29728;SDS011;20055;51.498;11.960;2022-11-27T05:43:03;38.72;;;19.27;;
29728;SDS011;20055;51.498;11.960;2022-11-27T05:45:30;44.33;;;20.13;;
29728;SDS011;20055;51.498;11.960;2022-11-27T05:47:56;42.55;;;20.45;;
29728;SDS011;20055;51.498;11.960;2022-11-27T05:50:23;39.42;;;18.38;;
29728;SDS011;20055;51.498;11.960;2022-11-27T05:52:50;39.80;;;18.10;;
29728;SDS011;20055;51.498;11.960;2022-11-27T05:55:16;44.70;;;19.35;;
29728;SDS011;20055;51.498;11.960;2022-11-27T05:57:43;38.58;;;17.55;;
29728;SDS011;20055;51.498;11.960;2022-11-27T06:00:10;35.42;;;18.17;;
29728;SDS011;20055;51.498;11.960;2022-11-27T06:02:36;39.35;;;17.92;;
29728;SDS011;20055;51.498;11.960;2022-11-27T06:05:03;42.42;;;18.08;;
29728;SDS011;20055;51.498;11.960;2022-11-27T06:07:30;49.38;;;19.33;;
29728;SDS011;20055;51.498;11.960;2022-11-27T06:09:57;36.33;;;16.60;;
29728;SDS011;20055;51.498;11.960;2022-11-27T06:12:23;42.55;;;17.33;;
29728;SDS011;20055;51.498;11.960;2022-11-27T06:14:50;33.17;;;14.95;;
29728;SDS011;20055;51.498;11.960;2022-11-27T06:17:16;37.92;;;16.77;;
29728;SDS011;20055;51.498;11.960;2022-11-27T06:19:43;34.30;;;15.52;;
29728;SDS011;20055;51.498;11.960;2022-11-27T06:22:09;45.13;;;16.85;;
29728;SDS011;20055;51.498;11.960;2022-11-27T06:24:36;40.17;;;17.80;;
29728;SDS011;20055;51.498;11.960;2022-11-27T06:27:03;42.75;;;17.10;;
29728;SDS011;20055;51.498;11.960;2022-11-27T06:29:29;34.63;;;15.65;;
29728;SDS011;20055;51.498;11.960;2022-11-27T06:31:55;36.58;;;16.13;;
29728;SDS011;20055;51.498;11.960;2022-11-27T06:34:22;41.58;;;17.60;;
29728;SDS011;20055;51.498;11.960;2022-11-27T06:36:48;45.47;;;16.27;;
29728;SDS011;20055;51.498;11.960;2022-11-27T06:39:16;47.22;;;18.77;;
29728;SDS011;20055;51.498;11.960;2022-11-27T06:41:43;49.22;;;18.10;;
29728;SDS011;20055;51.498;11.960;2022-11-27T06:44:09;44.55;;;20.55;;
29728;SDS011;20055;51.498;11.960;2022-11-27T06:46:36;41.15;;;17.90;;
29728;SDS011;20055;51.498;11.960;2022-11-27T06:49:03;55.95;;;21.27;;
29728;SDS011;20055;51.498;11.960;2022-11-27T06:51:30;41.90;;;18.92;;
29728;SDS011;20055;51.498;11.960;2022-11-27T06:53:58;45.00;;;20.27;;
29728;SDS011;20055;51.498;11.960;2022-11-27T06:56:25;45.25;;;18.05;;
29728;SDS011;20055;51.498;11.960;2022-11-27T06:58:52;41.53;;;19.83;;
29728;SDS011;20055;51.498;11.960;2022-11-27T07:01:19;34.85;;;16.67;;
29728;SDS011;20055;51.498;11.960;2022-11-27T07:03:46;36.50;;;17.02;;
29728;SDS011;20055;51.498;11.960;2022-11-27T07:06:14;34.13;;;15.10;;
29728;SDS011;20055;51.498;11.960;2022-11-27T07:08:41;42.10;;;15.27;;
29728;SDS011;20055;51.498;11.960;2022-11-27T07:11:11;33.05;;;13.75;;
29728;SDS011;20055;51.498;11.960;2022-11-27T07:16:05;25.00;;;13.73;;
29728;SDS011;20055;51.498;11.960;2022-11-27T07:18:39;30.13;;;14.77;;
29728;SDS011;20055;51.498;11.960;2022-11-27T07:21:06;32.92;;;14.32;;
29728;SDS011;20055;51.498;11.960;2022-11-27T07:23:33;39.20;;;15.40;;
29728;SDS011;20055;51.498;11.960;2022-11-27T07:26:04;32.13;;;15.15;;
29728;SDS011;20055;51.498;11.960;2022-11-27T07:30:57;33.25;;;15.18;;
29728;SDS011;20055;51.498;11.960;2022-11-27T07:33:24;44.63;;;17.33;;
29728;SDS011;20055;51.498;11.960;2022-11-27T07:36:04;39.30;;;16.65;;
29728;SDS011;20055;51.498;11.960;2022-11-27T07:38:31;38.60;;;16.05;;
29728;SDS011;20055;51.498;11.960;2022-11-27T07:40:58;40.60;;;18.33;;
29728;SDS011;20055;51.498;11.960;2022-11-27T07:43:26;33.45;;;15.60;;
29728;SDS011;20055;51.498;11.960;2022-11-27T07:45:52;32.85;;;16.10;;
29728;SDS011;20055;51.498;11.960;2022-11-27T07:48:19;31.88;;;16.48;;
29728;SDS011;20055;51.498;11.960;2022-11-27T07:50:45;36.10;;;16.48;;
29728;SDS011;20055;51.498;11.960;2022-11-27T07:53:12;40.03;;;16.88;;
29728;SDS011;20055;51.498;11.960;2022-11-27T07:55:39;30.38;;;15.35;;
29728;SDS011;20055;51.498;11.960;2022-11-27T07:58:06;37.50;;;15.80;;
29728;SDS011;20055;51.498;11.960;2022-11-27T08:00:33;38.97;;;16.35;;
29728;SDS011;20055;51.498;11.960;2022-11-27T08:03:00;44.35;;;15.07;;
29728;SDS011;20055;51.498;11.960;2022-11-27T08:05:26;36.70;;;15.52;;
29728;SDS011;20055;51.498;11.960;2022-11-27T08:07:53;31.52;;;15.13;;
29728;SDS011;20055;51.498;11.960;2022-11-27T08:10:20;40.10;;;16.75;;
29728;SDS011;20055;51.498;11.960;2022-11-27T08:12:47;37.88;;;15.75;;
29728;SDS011;20055;51.498;11.960;2022-11-27T08:15:13;30.40;;;14.52;;
29728;SDS011;20055;51.498;11.960;2022-11-27T08:17:40;42.47;;;15.13;;
29728;SDS011;20055;51.498;11.960;2022-11-27T08:20:07;43.22;;;16.15;;
29728;SDS011;20055;51.498;11.960;2022-11-27T08:22:33;40.85;;;17.30;;
29728;SDS011;20055;51.498;11.960;2022-11-27T08:25:00;37.97;;;16.95;;
29728;SDS011;20055;51.498;11.960;2022-11-27T08:27:27;36.33;;;16.48;;
29728;SDS011;20055;51.498;11.960;2022-11-27T08:29:56;43.63;;;19.05;;
29728;SDS011;20055;51.498;11.960;2022-11-27T08:32:23;40.53;;;19.23;;
29728;SDS011;20055;51.498;11.960;2022-11-27T08:34:49;52.72;;;20.88;;
29728;SDS011;20055;51.498;11.960;2022-11-27T08:37:16;48.97;;;22.13;;
29728;SDS011;20055;51.498;11.960;2022-11-27T08:39:42;42.85;;;22.08;;
29728;SDS011;20055;51.498;11.960;2022-11-27T08:42:09;54.33;;;22.65;;
29728;SDS011;20055;51.498;11.960;2022-11-27T08:44:35;44.25;;;21.10;;
29728;SDS011;20055;51.498;11.960;2022-11-27T08:47:02;42.17;;;19.88;;
29728;SDS011;20055;51.498;11.960;2022-11-27T08:49:29;47.05;;;20.75;;
29728;SDS011;20055;51.498;11.960;2022-11-27T08:51:55;47.63;;;21.05;;
29728;SDS011;20055;51.498;11.960;2022-11-27T08:54:22;43.83;;;19.30;;
29728;SDS011;20055;51.498;11.960;2022-11-27T08:56:50;42.17;;;19.73;;
29728;SDS011;20055;51.498;11.960;2022-11-27T08:59:16;38.05;;;19.52;;
29728;SDS011;20055;51.498;11.960;2022-11-27T09:01:43;41.97;;;20.35;;
29728;SDS011;20055;51.498;11.960;2022-11-27T09:04:10;34.38;;;19.98;;
29728;SDS011;20055;51.498;11.960;2022-11-27T09:06:39;43.72;;;21.50;;
29728;SDS011;20055;51.498;11.960;2022-11-27T09:09:06;45.90;;;24.53;;
29728;SDS011;20055;51.498;11.960;2022-11-27T09:11:33;47.90;;;24.50;;
29728;SDS011;20055;51.498;11.960;2022-11-27T09:14:00;55.05;;;26.65;;
29728;SDS011;20055;51.498;11.960;2022-11-27T09:16:27;56.20;;;25.83;;
29728;SDS011;20055;51.498;11.960;2022-11-27T09:18:55;57.85;;;27.80;;
29728;SDS011;20055;51.498;11.960;2022-11-27T09:21:23;58.47;;;28.42;;
29728;SDS011;20055;51.498;11.960;2022-11-27T09:23:52;62.30;;;31.30;;
29728;SDS011;20055;51.498;11.960;2022-11-27T09:26:19;52.22;;;29.75;;
29728;SDS011;20055;51.498;11.960;2022-11-27T09:28:48;53.83;;;27.00;;
29728;SDS011;20055;51.498;11.960;2022-11-27T09:31:15;51.45;;;26.27;;
29728;SDS011;20055;51.498;11.960;2022-11-27T09:33:42;49.03;;;24.35;;
29728;SDS011;20055;51.498;11.960;2022-11-27T09:36:09;48.05;;;22.05;;
29728;SDS011;20055;51.498;11.960;2022-11-27T09:38:36;39.10;;;19.02;;
29728;SDS011;20055;51.498;11.960;2022-11-27T09:41:29;46.72;;;19.48;;
29728;SDS011;20055;51.498;11.960;2022-11-27T09:43:54;33.42;;;15.60;;
29728;SDS011;20055;51.498;11.960;2022-11-27T09:46:44;33.75;;;14.93;;
29728;SDS011;20055;51.498;11.960;2022-11-27T09:49:16;32.05;;;16.20;;
29728;SDS011;20055;51.498;11.960;2022-11-27T09:52:00;35.25;;;13.75;;
29728;SDS011;20055;51.498;11.960;2022-11-27T09:54:40;29.35;;;13.05;;
29728;SDS011;20055;51.498;11.960;2022-11-27T09:57:11;29.08;;;12.85;;
29728;SDS011;20055;51.498;11.960;2022-11-27T09:59:44;32.70;;;12.93;;
29728;SDS011;20055;51.498;11.960;2022-11-27T10:02:25;23.42;;;12.15;;
29728;SDS011;20055;51.498;11.960;2022-11-27T10:04:53;27.23;;;12.83;;
29728;SDS011;20055;51.498;11.960;2022-11-27T10:15:35;21.63;;;10.68;;
29728;SDS011;20055;51.498;11.960;2022-11-27T10:21:23;20.60;;;9.43;;
29728;SDS011;20055;51.498;11.960;2022-11-27T10:24:01;32.67;;;10.60;;
29728;SDS011;20055;51.498;11.960;2022-11-27T10:26:47;21.80;;;10.18;;
29728;SDS011;20055;51.498;11.960;2022-11-27T10:31:54;23.85;;;10.77;;
29728;SDS011;20055;51.498;11.960;2022-11-27T10:36:51;32.28;;;10.80;;
29728;SDS011;20055;51.498;11.960;2022-11-27T10:42:21;20.40;;;10.25;;
29728;SDS011;20055;51.498;11.960;2022-11-27T10:44:50;15.77;;;9.77;;
29728;SDS011;20055;51.498;11.960;2022-11-27T10:47:19;23.17;;;10.23;;
29728;SDS011;20055;51.498;11.960;2022-11-27T10:49:49;24.02;;;10.65;;
29728;SDS011;20055;51.498;11.960;2022-11-27T10:52:16;18.42;;;9.93;;
29728;SDS011;20055;51.498;11.960;2022-11-27T10:54:44;28.92;;;11.73;;
29728;SDS011;20055;51.498;11.960;2022-11-27T10:59:42;21.40;;;11.30;;
29728;SDS011;20055;51.498;11.960;2022-11-27T11:02:25;22.35;;;10.52;;
29728;SDS011;20055;51.498;11.960;2022-11-27T11:04:54;26.30;;;10.27;;
29728;SDS011;20055;51.498;11.960;2022-11-27T11:07:22;18.40;;;9.10;;
29728;SDS011;20055;51.498;11.960;2022-11-27T11:09:49;24.20;;;10.05;;
29728;SDS011;20055;51.498;11.960;2022-11-27T11:12:18;26.67;;;10.88;;
29728;SDS011;20055;51.498;11.960;2022-11-27T11:14:52;19.75;;;9.88;;
29728;SDS011;20055;51.498;11.960;2022-11-27T11:17:27;19.98;;;10.18;;
29728;SDS011;20055;51.498;11.960;2022-11-27T11:19:54;27.52;;;9.75;;
29728;SDS011;20055;51.498;11.960;2022-11-27T11:22:20;22.73;;;10.55;;
29728;SDS011;20055;51.498;11.960;2022-11-27T11:24:51;20.17;;;9.95;;
29728;SDS011;20055;51.498;11.960;2022-11-27T11:27:18;32.70;;;11.85;;
29728;SDS011;20055;51.498;11.960;2022-11-27T11:29:49;22.98;;;9.45;;
29728;SDS011;20055;51.498;11.960;2022-11-27T11:34:53;21.35;;;9.18;;
29728;SDS011;20055;51.498;11.960;2022-11-27T11:42:29;23.27;;;9.73;;
29728;SDS011;20055;51.498;11.960;2022-11-27T11:47:32;22.13;;;8.32;;
29728;SDS011;20055;51.498;11.960;2022-11-27T11:49:59;20.10;;;9.27;;
29728;SDS011;20055;51.498;11.960;2022-11-27T11:52:41;17.17;;;8.57;;
29728;SDS011;20055;51.498;11.960;2022-11-27T11:55:17;25.08;;;9.30;;
29728;SDS011;20055;51.498;11.960;2022-11-27T11:57:48;21.73;;;10.85;;
29728;SDS011;20055;51.498;11.960;2022-11-27T12:00:21;22.40;;;9.45;;
29728;SDS011;20055;51.498;11.960;2022-11-27T12:05:37;25.85;;;9.27;;
29728;SDS011;20055;51.498;11.960;2022-11-27T12:18:40;23.40;;;8.98;;
29728;SDS011;20055;51.498;11.960;2022-11-27T12:21:17;30.27;;;8.83;;
29728;SDS011;20055;51.498;11.960;2022-11-27T12:43:06;16.33;;;8.20;;
29728;SDS011;20055;51.498;11.960;2022-11-27T12:48:12;22.75;;;9.05;;
29728;SDS011;20055;51.498;11.960;2022-11-27T12:50:43;28.10;;;7.97;;
29728;SDS011;20055;51.498;11.960;2022-11-27T12:55:39;24.95;;;9.73;;
29728;SDS011;20055;51.498;11.960;2022-11-27T12:58:09;19.42;;;8.18;;
29728;SDS011;20055;51.498;11.960;2022-11-27T13:00:39;25.92;;;8.75;;
29728;SDS011;20055;51.498;11.960;2022-11-27T13:03:21;20.30;;;8.43;;
29728;SDS011;20055;51.498;11.960;2022-11-27T13:05:51;21.67;;;9.25;;
29728;SDS011;20055;51.498;11.960;2022-11-27T13:08:20;35.45;;;11.23;;
29728;SDS011;20055;51.498;11.960;2022-11-27T13:16:06;22.02;;;9.73;;
29728;SDS011;20055;51.498;11.960;2022-11-27T13:18:40;19.73;;;9.13;;
29728;SDS011;20055;51.498;11.960;2022-11-27T13:21:08;23.75;;;8.70;;
29728;SDS011;20055;51.498;11.960;2022-11-27T13:23:37;26.48;;;10.80;;
29728;SDS011;20055;51.498;11.960;2022-11-27T13:26:05;28.60;;;10.32;;
29728;SDS011;20055;51.498;11.960;2022-11-27T13:28:37;19.30;;;8.60;;
29728;SDS011;20055;51.498;11.960;2022-11-27T13:31:06;19.98;;;9.00;;
29728;SDS011;20055;51.498;11.960;2022-11-27T13:33:41;26.48;;;9.30;;
29728;SDS011;20055;51.498;11.960;2022-11-27T13:36:22;23.65;;;8.85;;
29728;SDS011;20055;51.498;11.960;2022-11-27T13:38:57;22.33;;;9.43;;
29728;SDS011;20055;51.498;11.960;2022-11-27T13:41:29;21.15;;;9.32;;
29728;SDS011;20055;51.498;11.960;2022-11-27T13:43:57;25.52;;;10.43;;
29728;SDS011;20055;51.498;11.960;2022-11-27T13:46:27;19.15;;;9.70;;
29728;SDS011;20055;51.498;11.960;2022-11-27T13:51:21;33.22;;;10.77;;
29728;SDS011;20055;51.498;11.960;2022-11-27T13:54:09;29.17;;;10.95;;
29728;SDS011;20055;51.498;11.960;2022-11-27T13:56:36;21.67;;;9.10;;
29728;SDS011;20055;51.498;11.960;2022-11-27T13:59:17;23.92;;;9.98;;
29728;SDS011;20055;51.498;11.960;2022-11-27T14:01:57;31.52;;;11.23;;
29728;SDS011;20055;51.498;11.960;2022-11-27T14:04:27;27.55;;;11.50;;
29728;SDS011;20055;51.498;11.960;2022-11-27T14:07:03;23.33;;;10.57;;
29728;SDS011;20055;51.498;11.960;2022-11-27T14:09:34;31.05;;;11.30;;
29728;SDS011;20055;51.498;11.960;2022-11-27T14:12:01;29.75;;;11.65;;
29728;SDS011;20055;51.498;11.960;2022-11-27T14:14:44;24.88;;;11.10;;
29728;SDS011;20055;51.498;11.960;2022-11-27T14:17:25;27.15;;;11.18;;
29728;SDS011;20055;51.498;11.960;2022-11-27T14:20:45;32.17;;;12.85;;
29728;SDS011;20055;51.498;11.960;2022-11-27T14:25:17;30.50;;;11.70;;
29728;SDS011;20055;51.498;11.960;2022-11-27T14:27:44;36.70;;;13.18;;
29728;SDS011;20055;51.498;11.960;2022-11-27T14:33:13;31.70;;;13.70;;
29728;SDS011;20055;51.498;11.960;2022-11-27T14:35:40;34.28;;;13.20;;
29728;SDS011;20055;51.498;11.960;2022-11-27T14:38:08;34.72;;;12.80;;
29728;SDS011;20055;51.498;11.960;2022-11-27T14:40:35;27.30;;;12.10;;
29728;SDS011;20055;51.498;11.960;2022-11-27T14:43:21;31.25;;;12.77;;
29728;SDS011;20055;51.498;11.960;2022-11-27T14:45:49;29.40;;;12.57;;
29728;SDS011;20055;51.498;11.960;2022-11-27T14:48:27;31.58;;;13.13;;
29728;SDS011;20055;51.498;11.960;2022-11-27T14:50:56;36.10;;;13.20;;
29728;SDS011;20055;51.498;11.960;2022-11-27T14:53:23;29.33;;;13.25;;
29728;SDS011;20055;51.498;11.960;2022-11-27T14:55:52;32.28;;;13.88;;
29728;SDS011;20055;51.498;11.960;2022-11-27T14:58:21;37.55;;;13.98;;
29728;SDS011;20055;51.498;11.960;2022-11-27T15:00:53;32.13;;;13.80;;
29728;SDS011;20055;51.498;11.960;2022-11-27T15:03:20;33.42;;;14.20;;
29728;SDS011;20055;51.498;11.960;2022-11-27T15:05:54;29.75;;;14.10;;
29728;SDS011;20055;51.498;11.960;2022-11-27T15:08:21;33.90;;;16.73;;
29728;SDS011;20055;51.498;11.960;2022-11-27T15:10:50;36.75;;;17.75;;
29728;SDS011;20055;51.498;11.960;2022-11-27T15:13:28;32.63;;;14.50;;
29728;SDS011;20055;51.498;11.960;2022-11-27T15:16:02;28.48;;;13.63;;
29728;SDS011;20055;51.498;11.960;2022-11-27T15:18:34;28.27;;;13.18;;
29728;SDS011;20055;51.498;11.960;2022-11-27T15:21:02;26.10;;;11.85;;
29728;SDS011;20055;51.498;11.960;2022-11-27T15:23:34;34.08;;;12.93;;
29728;SDS011;20055;51.498;11.960;2022-11-27T15:31:18;29.30;;;13.90;;
29728;SDS011;20055;51.498;11.960;2022-11-27T15:33:57;36.25;;;13.52;;
29728;SDS011;20055;51.498;11.960;2022-11-27T15:36:37;30.85;;;14.43;;
29728;SDS011;20055;51.498;11.960;2022-11-27T15:39:18;28.50;;;12.48;;
29728;SDS011;20055;51.498;11.960;2022-11-27T15:41:55;37.33;;;13.77;;
29728;SDS011;20055;51.498;11.960;2022-11-27T15:44:23;30.73;;;13.98;;
29728;SDS011;20055;51.498;11.960;2022-11-27T15:46:50;33.90;;;15.25;;
29728;SDS011;20055;51.498;11.960;2022-11-27T15:49:16;30.10;;;13.38;;
29728;SDS011;20055;51.498;11.960;2022-11-27T15:51:44;29.35;;;12.35;;
29728;SDS011;20055;51.498;11.960;2022-11-27T15:54:10;40.28;;;13.23;;
29728;SDS011;20055;51.498;11.960;2022-11-27T15:56:37;27.60;;;12.82;;
29728;SDS011;20055;51.498;11.960;2022-11-27T15:59:03;29.50;;;13.55;;
29728;SDS011;20055;51.498;11.960;2022-11-27T16:01:30;26.30;;;12.48;;
29728;SDS011;20055;51.498;11.960;2022-11-27T16:03:57;27.27;;;13.52;;
29728;SDS011;20055;51.498;11.960;2022-11-27T16:06:23;28.95;;;11.93;;
29728;SDS011;20055;51.498;11.960;2022-11-27T16:08:57;32.78;;;15.82;;
29728;SDS011;20055;51.498;11.960;2022-11-27T16:11:24;33.17;;;12.20;;
29728;SDS011;20055;51.498;11.960;2022-11-27T16:13:51;25.65;;;11.98;;
29728;SDS011;20055;51.498;11.960;2022-11-27T16:16:18;25.52;;;11.70;;
29728;SDS011;20055;51.498;11.960;2022-11-27T16:18:44;27.50;;;11.85;;
29728;SDS011;20055;51.498;11.960;2022-11-27T16:21:13;32.97;;;12.52;;
29728;SDS011;20055;51.498;11.960;2022-11-27T16:23:40;30.02;;;12.65;;
29728;SDS011;20055;51.498;11.960;2022-11-27T16:26:09;25.10;;;12.05;;